Time;durP1;ratioP1;P1;durP2;ratioP2;P2;SDS_P1;SDS_P2;PMS_P1;PMS_P2;Temp;Humidity;BMP_temperature;BMP_pressure;BME280_temperature;BME280_humidity;BME280_pressure;Samples;Min_cycle;Max_cycle;Signal;HPM_P1;HPM_P2
2021/08/25 00:00:06;;;;;;;12.60;5.00;;;;;;;12.60;97.82;101135.14;714628;1203;113883;-77
2021/08/25 00:15:29;;;;;;;12.33;5.10;;;;;;;12.70;98.93;101107.09;713601;1200;115697;-77
2021/08/25 00:30:31;;;;;;;12.03;5.33;;;;;;;12.86;99.02;101097.91;714125;1203;114744;-77
2021/08/25 00:45:43;;;;;;;11.48;4.70;;;;;;;13.11;98.85;101081.66;715200;1202;114129;-77
2021/08/25 01:00:52;;;;;;;10.70;5.10;;;;;;;13.20;99.79;101058.14;714151;1202;114893;-79
2021/08/25 01:15:55;;;;;;;12.43;5.75;;;;;;;13.28;99.97;101050.39;713971;1180;114124;-77
2021/08/25 01:30:58;;;;;;;11.88;5.13;;;;;;;13.36;100.00;101040.04;713694;1205;115336;-77
2021/08/25 01:46:00;;;;;;;9.35;5.33;;;;;;;13.50;100.00;101030.92;713779;1174;115168;-78
2021/08/25 02:01:02;;;;;;;8.67;4.30;;;;;;;13.53;100.00;101030.64;713718;1199;116094;-78
2021/08/25 02:16:05;;;;;;;8.40;4.10;;;;;;;13.56;100.00;101019.00;713883;1192;114493;-78
2021/08/25 02:31:08;;;;;;;8.83;5.33;;;;;;;13.55;100.00;100994.42;713889;1199;114264;-78
2021/08/25 02:46:10;;;;;;;7.97;3.90;;;;;;;13.63;100.00;100985.83;714153;1202;114844;-78
2021/08/25 03:01:12;;;;;;;9.77;3.90;;;;;;;13.49;100.00;100979.17;713984;1179;114526;-78
2021/08/25 03:16:15;;;;;;;9.00;3.37;;;;;;;13.50;100.00;100967.67;714597;1200;115293;-79
2021/08/25 03:31:17;;;;;;;6.70;3.63;;;;;;;13.41;100.00;100948.23;714756;1200;114277;-75
2021/08/25 03:46:19;;;;;;;11.75;5.05;;;;;;;13.43;100.00;100951.55;714834;1189;114850;-78
2021/08/25 04:01:22;;;;;;;10.80;4.40;;;;;;;13.43;100.00;100954.18;714235;1202;114737;-76
2021/08/25 04:16:25;;;;;;;7.28;3.73;;;;;;;13.14;100.00;100943.58;713896;1203;114194;-77
2021/08/25 04:31:27;;;;;;;10.10;3.33;;;;;;;12.85;100.00;100925.91;713960;1178;114648;-77
2021/08/25 04:46:29;;;;;;;9.23;4.55;;;;;;;12.83;100.00;100917.33;713935;1176;114935;-77
2021/08/25 05:01:31;;;;;;;11.08;4.50;;;;;;;12.85;100.00;100915.38;713861;1200;114329;-78
2021/08/25 05:16:34;;;;;;;10.23;4.67;;;;;;;12.84;100.00;100902.34;713753;1204;114865;-77
2021/08/25 05:31:36;;;;;;;8.73;3.83;;;;;;;12.96;100.00;100881.04;713889;1200;114668;-78
2021/08/25 05:46:38;;;;;;;6.43;3.80;;;;;;;13.42;100.00;100860.30;714092;1205;115008;-73
2021/08/25 06:01:41;;;;;;;11.63;5.18;;;;;;;13.79;100.00;100848.16;714062;1200;114490;-74
2021/08/25 06:16:44;;;;;;;6.90;4.05;;;;;;;14.71;100.00;100832.52;714078;1203;115538;-74
2021/08/25 06:31:46;;;;;;;6.80;3.40;;;;;;;15.37;100.00;100825.20;714347;1203;114233;-80
2021/08/25 06:46:49;;;;;;;6.00;3.20;;;;;;;15.97;100.00;100806.77;714161;1200;114551;-81
2021/08/25 07:01:52;;;;;;;10.85;6.08;;;;;;;16.23;97.78;100799.75;714048;1204;114746;-83
2021/08/25 07:16:55;;;;;;;9.67;4.00;;;;;;;16.89;95.75;100776.06;714218;1175;114653;-82
2021/08/25 07:32:00;;;;;;;5.40;3.43;;;;;;;17.69;91.15;100750.66;713623;1200;114373;-82
2021/08/25 07:47:02;;;;;;;6.70;3.00;;;;;;;18.45;85.34;100727.10;714630;1200;113829;-82
2021/08/25 08:02:05;;;;;;;6.95;3.55;;;;;;;19.41;81.83;100698.20;715207;1203;113774;-80
2021/08/25 08:17:08;;;;;;;6.47;2.97;;;;;;;20.09;78.51;100700.70;715189;1179;114245;-83
2021/08/25 08:32:10;;;;;;;7.60;3.30;;;;;;;20.15;73.64;100675.14;713716;1203;114008;-80
2021/08/25 08:47:13;;;;;;;6.83;3.00;;;;;;;19.99;71.64;100649.58;713754;1202;115299;-80
2021/08/25 11:15:10;;;;;;;9.05;3.30;;;;;;;22.66;58.03;100410.64;714280;1196;35064;-73
2021/08/25 11:30:22;;;;;;;4.63;3.00;;;;;;;22.00;58.84;100370.55;714275;1182;113909;-73
2021/08/25 11:45:32;;;;;;;7.58;3.05;;;;;;;23.54;58.70;100347.55;714409;1205;113570;-73
2021/08/25 12:00:40;;;;;;;6.18;3.13;;;;;;;22.02;58.53;100317.73;713953;1181;113923;-72
2021/08/25 12:15:52;;;;;;;5.30;3.00;;;;;;;23.63;57.69;100295.37;714117;1177;113385;-76
2021/08/25 12:31:34;;;;;;;11.55;3.68;;;;;;;22.83;57.02;100251.38;714246;1178;113458;-76
2021/08/25 12:46:53;;;;;;;7.50;4.00;;;;;;;23.75;55.63;100223.98;719133;1178;114440;-77
2021/08/25 13:01:56;;;;;;;6.83;3.43;;;;;;;23.03;54.53;100211.09;714816;1200;114532;-77
2021/08/25 13:16:59;;;;;;;9.33;3.65;;;;;;;22.14;56.87;100183.53;714633;1200;113615;-77
2021/08/25 13:32:02;;;;;;;8.07;3.20;;;;;;;21.48;57.94;100151.53;717599;1184;113501;-74
2021/08/25 13:47:05;;;;;;;9.08;3.40;;;;;;;20.60;59.52;100126.00;714249;1200;113766;-79
2021/08/25 14:02:10;;;;;;;8.80;3.90;;;;;;;20.05;61.08;100111.01;714717;1202;113786;-78
2021/08/25 14:17:13;;;;;;;7.18;3.80;;;;;;;19.78;62.49;100086.97;714317;1183;113680;-79
2021/08/25 14:32:16;;;;;;;5.95;3.45;;;;;;;19.76;63.84;100058.92;714470;1203;114146;-78
2021/08/25 14:47:18;;;;;;;10.13;3.85;;;;;;;19.71;64.08;100035.55;714178;1203;115218;-76
2021/08/25 15:02:21;;;;;;;5.65;3.60;;;;;;;19.37;65.96;100001.91;714303;1202;114340;-76
2021/08/25 15:17:23;;;;;;;9.67;4.17;;;;;;;18.97;67.44;99986.63;714356;1200;114156;-76
2021/08/25 15:32:27;;;;;;;9.70;4.15;;;;;;;18.21;71.75;99977.58;715513;1202;115169;-73
2021/08/25 15:47:30;;;;;;;8.28;4.45;;;;;;;18.27;72.97;99949.42;715697;1200;115230;-73
2021/08/25 16:02:37;;;;;;;9.93;5.18;;;;;;;18.28;73.75;99920.02;715121;1200;115145;-73
2021/08/25 16:17:40;;;;;;;7.93;4.47;;;;;;;18.26;73.33;99887.53;714768;1202;114029;-76
2021/08/25 16:32:44;;;;;;;40.10;20.80;;;;;;;18.07;73.48;99875.78;715764;1200;114304;-76
2021/08/25 16:47:46;;;;;;;11.78;5.78;;;;;;;18.02;72.68;99858.81;715943;1205;114310;-76
2021/08/25 17:02:49;;;;;;;10.90;5.60;;;;;;;17.98;73.33;99837.15;714950;1200;115270;-76
2021/08/25 17:17:52;;;;;;;9.60;5.83;;;;;;;17.84;73.74;99819.47;714724;1177;113595;-76
2021/08/25 17:32:54;;;;;;;10.85;5.65;;;;;;;17.74;74.60;99785.34;714422;1178;113647;-73
2021/08/25 17:47:57;;;;;;;15.93;7.48;;;;;;;17.61;74.91;99759.55;714224;1177;114338;-74
2021/08/25 18:03:00;;;;;;;14.33;6.38;;;;;;;17.54;75.78;99753.36;714313;1180;113785;-78
2021/08/25 18:18:05;;;;;;;11.65;5.83;;;;;;;17.61;76.65;99730.38;714457;1174;113577;-76
2021/08/25 18:33:07;;;;;;;11.87;6.70;;;;;;;17.57;78.27;99715.88;714680;1177;114670;-77
2021/08/25 18:48:10;;;;;;;11.80;5.68;;;;;;;17.53;78.50;99691.57;714052;1177;113683;-77
2021/08/25 19:03:12;;;;;;;14.08;6.40;;;;;;;17.51;78.69;99663.61;714479;1199;114466;-77
2021/08/25 19:18:15;;;;;;;9.70;5.88;;;;;;;17.46;79.53;99635.05;714334;1200;114667;-77
2021/08/25 19:33:18;;;;;;;12.90;5.67;;;;;;;17.22;81.68;99621.26;714352;1184;113654;-77
2021/08/25 19:48:20;;;;;;;12.45;6.45;;;;;;;17.05;83.57;99601.36;714521;1177;113761;-79
2021/08/25 20:03:23;;;;;;;15.75;6.45;;;;;;;16.87;85.94;99580.64;714455;1200;114382;-78
2021/08/25 20:18:26;;;;;;;12.38;6.05;;;;;;;16.43;89.74;99556.89;714728;1200;113472;-77
2021/08/25 20:33:29;;;;;;;10.23;5.75;;;;;;;16.08;93.53;99548.03;714821;1177;114596;-77
2021/08/25 20:48:31;;;;;;;14.05;6.93;;;;;;;15.95;96.37;99536.30;714292;1200;113738;-77
2021/08/25 21:03:35;;;;;;;12.50;6.30;;;;;;;15.82;98.53;99503.63;715247;1182;115383;-77
2021/08/25 21:18:37;;;;;;;10.50;5.17;;;;;;;15.50;100.00;99484.57;713933;1178;115084;-76
2021/08/25 21:33:39;;;;;;;11.65;5.85;;;;;;;15.10;100.00;99467.25;713721;1176;113831;-78
2021/08/25 21:48:41;;;;;;;9.28;5.38;;;;;;;14.85;100.00;99442.97;713887;1176;114587;-77
2021/08/25 22:03:43;;;;;;;11.23;5.50;;;;;;;14.60;100.00;99413.38;713906;1202;114457;-77
2021/08/25 22:18:46;;;;;;;8.97;5.57;;;;;;;14.33;100.00;99364.69;714014;1199;114582;-77
2021/08/25 22:33:49;;;;;;;12.10;5.73;;;;;;;14.17;100.00;99337.48;713793;1202;114486;-76
2021/08/25 22:48:51;;;;;;;7.83;4.93;;;;;;;14.04;100.00;99316.20;713781;1206;114370;-76
2021/08/25 23:03:53;;;;;;;10.30;5.98;;;;;;;14.05;100.00;99296.75;713722;1206;113648;-76
2021/08/25 23:18:55;;;;;;;7.97;4.97;;;;;;;13.99;100.00;99271.94;713798;1200;113900;-77
2021/08/25 23:33:57;;;;;;;9.63;5.67;;;;;;;14.00;100.00;99244.55;713722;1177;113609;-75
2021/08/25 23:49:00;;;;;;;9.47;5.50;;;;;;;14.02;100.00;99241.75;713696;1176;114100;-78
